Grovelands parkrun, Enfield # 408 - 19/05/2018

PosparkrunnerTimeAge CatAge GradeGender PosClubNoteTotal Runs
1Ben BECKWITH17:21SM18-1975.98 %M1New PB!111Member of the parkrun 100 Club
2Oliver GRUMMELL19:00VM35-3970.79 %M2PB stays at 00:18:4978Member of the parkrun 50 Club
3Chris GOODLAD19:07VM40-4473.06 %M3New PB!17
4Tom BEDWELL19:09VM35-3970.76 %M4London HeathsideFirst Timer!33Strava logo
5Neil KENNERLEY19:21VM40-4472.18 %M5New PB!275Member of the parkrun 250 Club
6Duncan FROST19:42VM40-4469.80 %M6PB stays at 00:19:40110Member of the parkrun 100 Club
7Ian RAWLINSON19:43VM50-5475.40 %M7PB stays at 00:19:40166Member of the parkrun 100 ClubStrava logo
8Richard MILLER19:55SM25-2964.77 %M8New PB!6
9Mark SHEWRING19:57VM35-3966.08 %M9PB stays at 00:19:3527
10Sal OZSAKIN19:59VM50-5474.40 %M10PB stays at 00:18:40273Member of the parkrun 250 Club
11Ash FOWKES-GAJAN20:03JM11-1470.74 %M11New PB!13Member of the parkrun 10 Club
12Chris COLE20:08VM45-4971.52 %M12PB stays at 00:19:29146Member of the parkrun 100 Club
13Ken FERGUSON20:22VM40-4467.02 %M13Barnet and District ACPB stays at 00:18:12128Member of the parkrun 100 ClubStrava logo
14Richard NICE20:24VM45-4971.73 %M14PB stays at 00:20:14202Member of the parkrun 100 ClubStrava logo
15David BAKER20:33VM45-4969.51 %M15New PB!3
16Finn LEAHY20:51JM15-1764.75 %M16PB stays at 00:20:0241Member of the parkrun 10 Club
17Allan MCLEAN20:53VM45-4968.95 %M17PB stays at 00:20:3295Member of the parkrun 50 ClubStrava logo
18Leon OCKENDEN20:56VM35-3964.73 %M18First Timer!1
19Joseph HEATHER20:58JM11-1467.65 %M19Shaftesbury Barnet HarriersPB stays at 00:18:5219Member of the parkrun 10 Club
20Giovanni IONTA20:59VM45-4967.59 %M20PB stays at 00:20:07246Member of the parkrun 100 Club
21Unknown
22Unknown
23Gregory HANNAM21:23SM20-2460.33 %M23New PB!7
24Nick WINTERHALDER21:34VM45-4967.31 %M24PB stays at 00:21:326
25Unknown
26Nick TEBBUTT21:45SM30-3460.00 %M26New PB!134Member of the parkrun 100 Club
27Matt NEVILLE21:49VM35-3962.11 %M27New PB!28
28Isaac CHERRIE21:55SM25-2958.86 %M28PB stays at 00:19:4178Member of the parkrun 50 Club
29Laurie CARRIGAN21:58SM30-3459.18 %M29First Timer!64Member of the parkrun 50 ClubStrava logo
30Kishan THANAWALA22:02SM25-2958.62 %M30PB stays at 00:21:5434
31Rob FOWKES-GAJAN22:03VM45-4964.32 %M31PB stays at 00:21:356
32Mike BABB22:04VM50-5467.37 %M32PB stays at 00:21:43151Member of the parkrun 100 ClubStrava logo
33Migell LEWIS22:04SM30-3458.91 %M33PB stays at 00:21:15220Member of the parkrun 100 Club
34Caspar CORDEN22:05VM40-4462.72 %M34New PB!15
35John ROWLEY22:05VM50-5467.85 %M35PB stays at 00:21:4164Member of the parkrun 50 Club
36Samuel FRENCH22:10SM20-2458.20 %M36PB stays at 00:21:547
37Stuart MOODIE22:15VM45-4965.24 %M37First Timer!49Strava logo
38Tom WILKINSON22:16SM30-3458.38 %M38Synergy Running ClubFirst Timer!1
39Matthew PARKER22:17JM11-1465.07 %M39Trent Park Running ClubPB stays at 00:20:5524Member of the parkrun 10 Club
40Charlie JOHNSON22:43JM11-1467.35 %M40PB stays at 00:21:0460Member of the parkrun 50 Club
41Liam GALLAGHER22:46VM55-5967.50 %M41PB stays at 00:21:19150Member of the parkrun 100 Club
42Vik MEDENIS22:46VM55-5968.67 %M42PB stays at 00:21:36142Member of the parkrun 100 Club
43Jeffrey CHWIEROTH22:48VM40-4461.26 %M43PB stays at 00:21:27121Member of the parkrun 100 Club
44Stewart MCMILLAN22:49VM40-4460.70 %M44New PB!22
45John LUCAROTTI22:52VM35-3958.82 %M45PB stays at 00:22:2553Member of the parkrun 50 Club
46Michael ORR22:57VM45-4962.75 %M46Edmonton RCPB stays at 00:19:51160Member of the parkrun 100 ClubStrava logo
47Unknown
48Unknown
49Darren CLARK23:13VM35-3957.93 %M49New PB!28Strava logo
50Mark ROTHERAM23:18VM40-4458.58 %M50PB stays at 00:21:5632
51Tom DEAN23:20VM35-3957.21 %M51PB stays at 00:20:5843
52Stephen ELLIS23:22VM50-5463.12 %M52PB stays at 00:23:2213
53Daniel WALKER23:24SM25-2955.20 %M53Ely RunnersNew PB!28
54Thomas BROWN23:26SM20-2455.26 %M54New PB!4
55Dean BARKER-SMITH23:36SM30-3455.08 %M55Trent Park Running ClubPB stays at 00:20:246Strava logo
56Roger DOXEY23:38VM55-5966.15 %M56PB stays at 00:21:42250Member of the parkrun 250 ClubMember of the parkrun v25 ClubStrava logo
57Harry CLARE-PAULE23:40SM20-2454.51 %M57PB stays at 00:23:142
58John CHURCHILL23:41VM50-5463.83 %M58PB stays at 00:23:20135Member of the parkrun 100 ClubMember of the parkrun v25 ClubStrava logo
59Tom SHADBOLT23:44SM25-2954.42 %M59First Timer!7Strava logo
60Matthew WOOD23:45SM25-2954.32 %M60First Timer!5
61Jess CUNNIFFE23:50SW30-3462.24 %F1First Timer!37Strava logo
62Callum GEORGALLIDES23:50SM25-2954.13 %M61First Timer!1
63Hoss MOTEVALLI23:54VM35-3955.86 %M62New PB!16
64Unknown
65Matt CARTER24:03VM40-4458.49 %M64First Timer!122Member of the parkrun 100 ClubStrava logo
66Fred MACKENZIE24:04JM11-1460.25 %M65First Timer!2
67Iain MACKENZIE24:04VM45-4960.32 %M66PB stays at 00:23:3421
68Dai BAYNES24:09VM40-4458.25 %M67New PB!4
69Damian J THORPE24:13VM40-4456.78 %M68First Timer!39Strava logo
70Michael DEWHIRST24:26JM15-1756.96 %M69PB stays at 00:23:0420Member of the parkrun 10 Club
71Laura WATKINS24:29SW25-2960.45 %F2First Timer!10
72John DAWSON24:30VM40-4455.71 %M70PB stays at 00:23:545
73Mike WILSON24:34VM55-5964.18 %M71PB stays at 00:22:1722
74William TYRRELL24:35SM30-3452.75 %M72PB stays at 00:24:227
75Robert GOLLE24:36VM50-5461.92 %M73PB stays at 00:23:1013Strava logo
76Nim PATHY24:39VM40-4455.38 %M74PB stays at 00:24:0335
77Unknown
78Samantha WILLIAMS24:42SW30-3459.92 %F3PB stays at 00:23:47122Member of the parkrun 100 ClubStrava logo
79Nigel WICK24:45VM50-5460.07 %M76PB stays at 00:22:25286Member of the parkrun 250 ClubMember of the parkrun v25 Club
80John Gerard Michael CURRAN24:47VM65-6967.65 %M77PB stays at 00:22:26221Member of the parkrun 100 ClubStrava logo
81Kirsty SHARP24:49SW30-3459.70 %F4PB stays at 00:23:3851Member of the parkrun 50 Club
82Nigel BALL24:50VM50-5460.34 %M78PB stays at 00:22:28271Member of the parkrun 250 Club
83John STAN24:52VM35-3954.09 %M79PB stays at 00:24:0019Strava logo
84Jennifer KITSON24:55SW25-2959.40 %F5PB stays at 00:24:06114Member of the parkrun 100 Club
85Chris VALE24:58VM35-3952.80 %M80New PB!20
86Freddie GRUBB25:02SM25-2951.53 %M81New PB!2
87Alistair JARVIS25:02VM35-3953.33 %M82New PB!10
88Darren WHITE25:05VM40-4455.22 %M83PB stays at 00:20:4485Member of the parkrun 50 Club
89Tim SLIDEL25:09VM45-4958.18 %M84First Timer!1
90Will TEMPLE25:11SM20-2451.22 %M85PB stays at 00:23:5625
91Deevianee CHURCHILL25:17VW50-5466.32 %F6PB stays at 00:24:25145Member of the parkrun 100 ClubMember of the parkrun v25 ClubStrava logo
92Richard JENKINS25:18VM55-5960.74 %M86PB stays at 00:23:05131Member of the parkrun 100 Club
93Barbara BUDIN25:20SW25-2958.42 %F7First Timer!36Strava logo
94Stephen LLOYD-JONES25:22VM55-5962.68 %M87PB stays at 00:22:15237Member of the parkrun 100 Club
95John NETHAWAY25:23VM50-5458.11 %M88Edmonton RCPB stays at 00:22:5833
96John HEATHER25:32VM50-5457.77 %M89PB stays at 00:20:0326
97Mark DEWDNEY25:35VM50-5459.09 %M90Arena 80 ACFirst Timer!175Member of the parkrun 100 ClubMember of the parkrun v25 ClubStrava logo
98Unknown
99Brad REYNOLDS25:42SM30-3450.32 %M92PB stays at 00:24:3221
100Unknown
101Unknown
102Mark TAYLOR25:48VM45-4955.81 %M95PB stays at 00:25:0620
103Katie SHEWRING25:51VW35-3957.83 %F8Edmonton RCPB stays at 00:21:0556Member of the parkrun 50 Club
104Robert REA25:51VM50-5458.48 %M96PB stays at 00:24:37136Member of the parkrun 100 Club
105Dylan MCLEAN25:52JM11-1456.06 %M97PB stays at 00:22:3564Member of the parkrun 50 Club
106Laura CLARK25:59VW35-3957.92 %F9PB stays at 00:25:3721
107Chloe MARSHALL26:01VW45-4962.27 %F10PB stays at 00:24:1156Member of the parkrun 50 Club
108Gemma PEDLAR26:07VW35-3958.20 %F11Run Mummy RunFirst Timer!105Member of the parkrun 100 ClubStrava logo
109Jan HICKMAN26:08VW55-5972.19 %F12PB stays at 00:22:06309Member of the parkrun 250 Club
110Anastasia DINES26:13JW1069.10 %F13PB stays at 00:25:0942Member of the parkrun 10 Club
111Ken STEWART26:21VM60-6463.06 %M98Edmonton RCPB stays at 00:24:1271Member of the parkrun 50 Club
112Andrew DEWHIRST26:28VM55-5959.57 %M99PB stays at 00:23:43145Member of the parkrun 100 Club
113David BICKLEY26:36VM40-4451.69 %M100PB stays at 00:23:4883Member of the parkrun 50 Club
114Johnson REX26:41VM50-5455.28 %M101PB stays at 00:24:0986Member of the parkrun 50 Club
115Jonathan WISE26:41VM50-5456.15 %M102New PB!11
116Terence DAWKINS26:44VM45-4954.30 %M103PB stays at 00:24:4115
117Elaine PITTER26:59VW40-4457.01 %F14PB stays at 00:22:37157Member of the parkrun 100 ClubMember of the parkrun v25 Club
118Ben WRIGHT27:13VM40-4450.52 %M104PB stays at 00:22:5663Member of the parkrun 50 Club
119Unknown
120Emma BULLOCK27:15VW35-3955.23 %F15Mornington ChasersNew PB!39
121Unknown
122Louise MATTHEW27:20VW45-4958.66 %F16New PB!5
123Nicholas CHRONIAS27:21VM50-5455.70 %M107PB stays at 00:26:0724
124Helen DOUGHERTY27:32VW50-5463.26 %F17PB stays at 00:24:25208Member of the parkrun 100 Club
125Samuel RUFO27:35JM1059.27 %M108PB stays at 00:24:4479Member of the parkrun 50 Club
126Jessica GENOVESE27:38VW35-3955.01 %F18First Timer!37
127Oscar RUFO27:44VM40-4450.36 %M109PB stays at 00:26:5086Member of the parkrun 50 Club
128Antonio SUAREZ-SUAREZ27:46VM70-7464.29 %M110PB stays at 00:24:50247Member of the parkrun 100 Club
129Sarah ROGERS28:04VW45-4957.72 %F19PB stays at 00:24:5480Member of the parkrun 50 Club
130Simon HOGG28:11VM60-6457.89 %M111PB stays at 00:24:39140Member of the parkrun 100 Club
131Clem MARSH28:13VM55-5955.40 %M112PB stays at 00:23:40220Member of the parkrun 100 Club
132Mark POLLARD28:25VM55-5955.01 %M113New PB!33
133Unknown
134Jeannette ADAMS28:31VW45-4958.09 %F20PB stays at 00:28:10118Member of the parkrun 100 Club
135Harriet COPLAND28:38VW50-5459.25 %F21Hillingdon TriathletesPB stays at 00:24:5932
136Debra MELBOURNE28:39VW45-4957.82 %F22PB stays at 00:27:48129Member of the parkrun 100 Club
137Dorothy BURROWES28:41JW15-1752.70 %F23PB stays at 00:27:3229Member of the parkrun 10 Club
138Michael CHRISTODOULIDES28:42VM35-3946.86 %M115PB stays at 00:26:4381Member of the parkrun 50 Club
139Debbie HADJICOSTAS28:44VW50-5459.80 %F24First Timer!5
140Unknown
141Andrew LEWRY28:48VM50-5452.89 %M117PB stays at 00:22:28134Member of the parkrun 100 Club
142Alex ZMAJKOVIC28:52VM50-5451.10 %M118PB stays at 00:25:5061Member of the parkrun 50 ClubStrava logo
143John JOHNSON28:57VM55-5954.46 %M119PB stays at 00:26:3848
144Unknown
145David COLSON29:17JM11-1450.77 %M121New PB!2
146Peter CAWOOD29:21VM35-3945.83 %M122PB stays at 00:26:4814
147Padraic GANNON29:24VM50-5451.81 %M123PB stays at 00:27:4039
148Andy KOUMI29:27VM50-5451.73 %M124PB stays at 00:27:32166Member of the parkrun 100 ClubStrava logo
149James PICKLES29:41VM60-6454.52 %M125PB stays at 00:23:54109Member of the parkrun 100 Club
150Daniel GOODLAD29:51JM11-1448.58 %M126PB stays at 00:27:1822Member of the parkrun 10 Club
151Lee HAIGH30:20VM50-5450.22 %M127New PB!2
152Elayne FRANKS30:21VW45-4954.59 %F25PB stays at 00:28:1321
153Catherine RAYNER30:42SW25-2948.21 %F26PB stays at 00:28:4517Strava logo
154Claire PATEL30:53SW25-2947.92 %F27New PB!20Strava logo
155Unknown
156Kat PETERSEN31:23VW35-3947.96 %F28New PB!102Member of the parkrun 100 ClubStrava logo
157Barbara SUSSMAN31:24VW55-5959.24 %F29PB stays at 00:29:15118Member of the parkrun 100 ClubStrava logo
158Unknown
159Rachel ROBINSON31:33SW30-3447.23 %F30First Timer!22
160Unknown
161Hannah NICE31:35VW50-5453.09 %F31PB stays at 00:27:10134Member of the parkrun 100 ClubStrava logo
162Annmarie MCCARTHY31:40VW45-4952.32 %F32PB stays at 00:31:1421
163Unknown
164Katie WADSWORTH31:44VW45-4950.05 %F33PB stays at 00:28:3346
165Irena COLE31:50VW35-3947.28 %F34PB stays at 00:31:044
166Helen MACKENZIE31:55VW45-4950.76 %F35New PB!5
167Senthil Sekar MUTHUSAMY32:00VM40-4442.66 %M132PB stays at 00:25:2912
168Barbara RICHARDSON32:04VW55-5958.00 %F36PB stays at 00:29:4896Member of the parkrun 50 Club
169Jen WATKINS32:08SW30-3446.11 %F37PB stays at 00:32:054
170Mary COLLINS32:19VW50-5453.17 %F38Ealing Eagles Running ClubPB stays at 00:25:51166Member of the parkrun 100 ClubStrava logo
171Charlotte COOKLIN32:26VW55-5956.58 %F39New PB!6
172Xenia DINES32:30VW35-3946.77 %F40PB stays at 00:32:1343Strava logo
173Sarah JOHNSON32:36VW40-4447.55 %F41PB stays at 00:27:43103Member of the parkrun 100 Club
174Amanda ROWLEY32:40VW50-5451.94 %F42PB stays at 00:30:5525
175Josephine HARRISON32:43VW55-5955.32 %F43PB stays at 00:27:43121Member of the parkrun 100 Club
176Joanna BROWN32:57VW40-4446.43 %F44PB stays at 00:30:0510
177Sophie CORREIA33:00SW20-2444.85 %F45First Timer!1
178Angela MCNICHOLAS33:01VW50-5451.39 %F46PB stays at 00:32:1419
179Gavin JENKINS33:03VM45-4943.22 %M133PB stays at 00:27:26118Member of the parkrun 100 ClubStrava logo
180Emily HARRIS33:22SW25-2944.36 %F47PB stays at 00:31:2412
181Stephen GOODLAD33:33JM11-1445.60 %M134PB stays at 00:33:1916Member of the parkrun 10 Club
182Susan RIXSON33:35VW50-5451.86 %F48PB stays at 00:32:148
183Daniela O'BYRNE33:52VW55-5955.71 %F49PB stays at 00:31:0796Member of the parkrun 50 Club
184Maggie WESTHEAD34:16VW40-4445.23 %F50PB stays at 00:26:2414
185Unknown
186Unknown
187Rob HEARD34:19VM50-5442.98 %M137PB stays at 00:25:2660Member of the parkrun 50 Club
188Stephanie MARFO34:47SW30-3442.74 %F51New PB!3
189Kate GIDDENS34:48VW55-5953.45 %F52New PB!4
190Roy SATTERTHWAITE35:09VM70-7450.17 %M138New PB!20
191Ernie CLUTTON35:31VM75-7954.29 %M139PB stays at 00:30:54189Member of the parkrun 100 Club
192Charlotte FROST35:53VW40-4443.20 %F53PB stays at 00:31:4130
193Steph THEODOSIOU36:17SW25-2940.79 %F54First Timer!1
194Unknown
195Clare SHIP37:31VW40-4440.78 %F55First Timer!1
196Tracy EJIMOGU37:56VW45-4941.87 %F56PB stays at 00:29:1525
197Dawn CLARE40:46VW50-5442.72 %F57First Timer!1
198Lisa ANDREOU40:47VW45-4938.95 %F58PB stays at 00:27:312
199Ilia LOUBENSKI42:05VM45-4933.94 %M141Edmonton RCPB stays at 00:18:2542

Thanks to the volunteers

We are very grateful to the volunteers who made this event happen:Rezaul ARFAN, Alexander BARBE, Marielena DEMETRIOU, Helena DI FRANCO, Marco DI FRANCO, Nick DINES, Edward GAETON, Harry JONES, Ilia LOUBENSKI, Caroline WICK

Why not get involved and volunteer?

What is this table?

This table shows the complete results for the specified week at this event. It is automatically shown when you navigate to the results page, but can also be reached by clicking on Latest Results, or by picking a specific week from the Event History table. If you bookmark the Latest Results page in your browser, the bookmark will always take you to the most up to date results table. If you bookmark a results page reached via the Event History table, the bookmark will then always take you to that specific week's results.

The columns

  • Pos - the runner's overall position in the run.
  • parkrunner - is the registered name of the athlete; clicking on the name takes you to that athlete's results page for this event.
  • Time - is the runner's recorded time - we record the overall time between the run director's start instruction and the runner crossing the finish line.
  • Age Cat - represents the age category of the runner on the day of the run; the first letter represents the major age categories (J)unior, (S)enior and (Veteran); the second letter represents gender (M)en and (W)omen; the remainder of the category represents a more specific age range. There are two further categories for wheel chair users; WWC and MWC represent Women and Men respectively. Clicking on the result category takes you to that age categories' historical record for this event.
  • Age Grade
  • - Gives an indication of how well the runner has done relative to their age and gender see the FAQ article for more information.
  • Gender - (M)ale or (F)emale
  • Gender Pos- Gender finish positions.
  • Club - Running club if registered.
  • Note - Note - Comments about PBs (Personal Bests).
  • Total Runs - Total number of runs across all parkruns, an indicator of membership of the various parkrun clubs, and their links with partner websites.

As with any of the results tables, the table can be sorted by any column by clicking on the column heading.